sensor_id;sensor_type;location;lat;lon;timestamp;pressure;altitude;pressure_sealevel;temperature;humidity
50065;BME280;35951;47.848;-122.338;2022-10-04T00:01:47;101428.48;;;19.80;100.00
50065;BME280;35951;47.848;-122.338;2022-10-04T00:04:29;101422.30;;;19.81;100.00
50065;BME280;35951;47.848;-122.338;2022-10-04T00:07:06;101419.64;;;19.82;100.00
50065;BME280;35951;47.848;-122.338;2022-10-04T00:09:42;101412.59;;;19.83;100.00
50065;BME280;35951;47.848;-122.338;2022-10-04T00:12:18;101412.17;;;19.83;100.00
50065;BME280;35951;47.848;-122.338;2022-10-04T00:14:46;101408.22;;;19.83;100.00
50065;BME280;35951;47.848;-122.338;2022-10-04T00:17:17;101409.08;;;19.84;100.00
50065;BME280;35951;47.848;-122.338;2022-10-04T00:19:45;101408.22;;;19.83;100.00
50065;BME280;35951;47.848;-122.338;2022-10-04T00:22:14;101400.83;;;19.78;100.00
50065;BME280;35951;47.848;-122.338;2022-10-04T00:27:39;101399.54;;;19.75;100.00
50065;BME280;35951;47.848;-122.338;2022-10-04T00:30:20;101401.76;;;19.72;100.00
50065;BME280;35951;47.848;-122.338;2022-10-04T00:33:09;101399.16;;;19.69;100.00
50065;BME280;35951;47.848;-122.338;2022-10-04T00:38:01;101401.46;;;19.62;100.00
50065;BME280;35951;47.848;-122.338;2022-10-04T00:40:32;101401.08;;;19.60;100.00
50065;BME280;35951;47.848;-122.338;2022-10-04T00:43:11;101396.31;;;19.54;100.00
50065;BME280;35951;47.848;-122.338;2022-10-04T00:45:53;101400.77;;;19.49;100.00
50065;BME280;35951;47.848;-122.338;2022-10-04T00:53:51;101392.66;;;19.33;100.00
50065;BME280;35951;47.848;-122.338;2022-10-04T00:56:29;101400.64;;;19.28;100.00
50065;BME280;35951;47.848;-122.338;2022-10-04T01:01:27;101405.98;;;19.21;100.00
50065;BME280;35951;47.848;-122.338;2022-10-04T01:03:55;101405.22;;;19.14;100.00
50065;BME280;35951;47.848;-122.338;2022-10-04T01:06:24;101403.09;;;19.07;100.00
50065;BME280;35951;47.848;-122.338;2022-10-04T01:09:06;101409.30;;;19.03;100.00
50065;BME280;35951;47.848;-122.338;2022-10-04T01:11:22;101408.48;;;18.98;100.00
50065;BME280;35951;47.848;-122.338;2022-10-04T01:16:27;101407.77;;;18.84;100.00
50065;BME280;35951;47.848;-122.338;2022-10-04T01:18:55;101403.41;;;18.79;100.00
50065;BME280;35951;47.848;-122.338;2022-10-04T01:21:25;101406.06;;;18.76;100.00
50065;BME280;35951;47.848;-122.338;2022-10-04T01:28:58;101403.20;;;18.57;100.00
50065;BME280;35951;47.848;-122.338;2022-10-04T01:31:33;101409.86;;;18.49;100.00
50065;BME280;35951;47.848;-122.338;2022-10-04T01:34:02;101409.93;;;18.43;100.00
50065;BME280;35951;47.848;-122.338;2022-10-04T01:36:32;101415.22;;;18.38;100.00
50065;BME280;35951;47.848;-122.338;2022-10-04T01:39:01;101411.75;;;18.35;100.00
50065;BME280;35951;47.848;-122.338;2022-10-04T01:44:02;101423.20;;;18.29;100.00
50065;BME280;35951;47.848;-122.338;2022-10-04T01:46:32;101427.61;;;18.26;100.00
50065;BME280;35951;47.848;-122.338;2022-10-04T01:49:02;101420.20;;;18.20;100.00
50065;BME280;35951;47.848;-122.338;2022-10-04T01:51:30;101420.27;;;18.14;100.00
50065;BME280;35951;47.848;-122.338;2022-10-04T01:54:04;101416.39;;;18.07;100.00
50065;BME280;35951;47.848;-122.338;2022-10-04T01:56:51;101423.91;;;17.98;100.00
50065;BME280;35951;47.848;-122.338;2022-10-04T01:59:23;101419.98;;;17.93;100.00
50065;BME280;35951;47.848;-122.338;2022-10-04T02:01:58;101421.34;;;17.90;100.00
50065;BME280;35951;47.848;-122.338;2022-10-04T02:04:27;101412.61;;;17.85;100.00
50065;BME280;35951;47.848;-122.338;2022-10-04T02:06:56;101409.97;;;17.79;100.00
50065;BME280;35951;47.848;-122.338;2022-10-04T02:09:25;101411.80;;;17.71;100.00
50065;BME280;35951;47.848;-122.338;2022-10-04T02:11:54;101405.28;;;17.64;100.00
50065;BME280;35951;47.848;-122.338;2022-10-04T02:14:24;101407.92;;;17.61;100.00
50065;BME280;35951;47.848;-122.338;2022-10-04T02:16:52;101409.23;;;17.60;100.00
50065;BME280;35951;47.848;-122.338;2022-10-04T02:19:24;101412.77;;;17.57;100.00
50065;BME280;35951;47.848;-122.338;2022-10-04T02:21:49;101420.21;;;17.55;100.00
50065;BME280;35951;47.848;-122.338;2022-10-04T02:24:17;101424.20;;;17.49;100.00
50065;BME280;35951;47.848;-122.338;2022-10-04T02:26:53;101423.80;;;17.41;100.00
50065;BME280;35951;47.848;-122.338;2022-10-04T02:29:18;101427.34;;;17.34;100.00
50065;BME280;35951;47.848;-122.338;2022-10-04T02:31:47;101424.75;;;17.26;100.00
50065;BME280;35951;47.848;-122.338;2022-10-04T02:34:32;101427.84;;;17.20;100.00
50065;BME280;35951;47.848;-122.338;2022-10-04T02:37:04;101429.61;;;17.12;100.00
50065;BME280;35951;47.848;-122.338;2022-10-04T02:39:32;101429.64;;;17.05;100.00
50065;BME280;35951;47.848;-122.338;2022-10-04T02:42:16;101424.42;;;17.01;100.00
50065;BME280;35951;47.848;-122.338;2022-10-04T02:44:59;101427.50;;;16.97;100.00
50065;BME280;35951;47.848;-122.338;2022-10-04T02:47:44;101427.50;;;16.96;100.00
50065;BME280;35951;47.848;-122.338;2022-10-04T02:52:56;101435.38;;;16.89;100.00
50065;BME280;35951;47.848;-122.338;2022-10-04T02:55:26;101436.27;;;16.87;100.00
50065;BME280;35951;47.848;-122.338;2022-10-04T02:57:55;101431.91;;;16.83;100.00
50065;BME280;35951;47.848;-122.338;2022-10-04T03:00:24;101441.93;;;16.80;100.00
50065;BME280;35951;47.848;-122.338;2022-10-04T03:05:52;101443.71;;;16.72;100.00
50065;BME280;35951;47.848;-122.338;2022-10-04T03:08:25;101442.39;;;16.69;100.00
50065;BME280;35951;47.848;-122.338;2022-10-04T03:10:53;101445.46;;;16.64;100.00
50065;BME280;35951;47.848;-122.338;2022-10-04T03:13:21;101441.52;;;16.64;100.00
50065;BME280;35951;47.848;-122.338;2022-10-04T03:15:48;101445.04;;;16.61;100.00
50065;BME280;35951;47.848;-122.338;2022-10-04T03:18:16;101444.62;;;16.57;100.00
50065;BME280;35951;47.848;-122.338;2022-10-04T03:20:43;101443.75;;;16.52;100.00
50065;BME280;35951;47.848;-122.338;2022-10-04T03:23:12;101440.25;;;16.48;100.00
50065;BME280;35951;47.848;-122.338;2022-10-04T03:25:49;101437.17;;;16.46;100.00
50065;BME280;35951;47.848;-122.338;2022-10-04T03:28:17;101452.50;;;16.45;100.00
50065;BME280;35951;47.848;-122.338;2022-10-04T03:30:47;101453.80;;;16.43;100.00
50065;BME280;35951;47.848;-122.338;2022-10-04T03:33:15;101453.79;;;16.39;100.00
50065;BME280;35951;47.848;-122.338;2022-10-04T03:35:44;101469.55;;;16.37;100.00
50065;BME280;35951;47.848;-122.338;2022-10-04T03:38:13;101467.79;;;16.36;100.00
50065;BME280;35951;47.848;-122.338;2022-10-04T03:40:44;101477.41;;;16.33;100.00
50065;BME280;35951;47.848;-122.338;2022-10-04T03:43:14;101479.59;;;16.27;100.00
50065;BME280;35951;47.848;-122.338;2022-10-04T03:45:41;101471.70;;;16.21;100.00
50065;BME280;35951;47.848;-122.338;2022-10-04T03:48:10;101466.48;;;16.18;100.00
50065;BME280;35951;47.848;-122.338;2022-10-04T03:50:44;101463.41;;;16.17;100.00
50065;BME280;35951;47.848;-122.338;2022-10-04T03:53:22;101462.09;;;16.15;100.00
50065;BME280;35951;47.848;-122.338;2022-10-04T03:55:46;101467.34;;;16.10;100.00
50065;BME280;35951;47.848;-122.338;2022-10-04T03:58:13;101470.84;;;16.05;100.00
50065;BME280;35951;47.848;-122.338;2022-10-04T04:00:42;101478.23;;;16.01;100.00
50065;BME280;35951;47.848;-122.338;2022-10-04T04:03:17;101483.06;;;16.01;100.00
50065;BME280;35951;47.848;-122.338;2022-10-04T04:05:51;101476.95;;;15.99;100.00
50065;BME280;35951;47.848;-122.338;2022-10-04T04:08:12;101468.63;;;15.97;100.00
50065;BME280;35951;47.848;-122.338;2022-10-04T04:10:42;101469.06;;;15.95;100.00
50065;BME280;35951;47.848;-122.338;2022-10-04T04:13:24;101473.89;;;15.93;100.00
50065;BME280;35951;47.848;-122.338;2022-10-04T04:15:57;101477.36;;;15.92;100.00
50065;BME280;35951;47.848;-122.338;2022-10-04T04:18:31;101485.23;;;15.92;100.00
50065;BME280;35951;47.848;-122.338;2022-10-04T04:21:00;101488.70;;;15.91;100.00
50065;BME280;35951;47.848;-122.338;2022-10-04T04:23:36;101487.41;;;15.87;100.00
50065;BME280;35951;47.848;-122.338;2022-10-04T04:29:00;101489.14;;;15.77;100.00
50065;BME280;35951;47.848;-122.338;2022-10-04T04:31:26;101493.89;;;15.70;100.00
50065;BME280;35951;47.848;-122.338;2022-10-04T04:33:56;101496.47;;;15.64;100.00
50065;BME280;35951;47.848;-122.338;2022-10-04T04:36:27;101498.66;;;15.63;100.00
50065;BME280;35951;47.848;-122.338;2022-10-04T04:39:11;101505.63;;;15.64;100.00
50065;BME280;35951;47.848;-122.338;2022-10-04T04:45:24;101516.13;;;15.67;100.00
50065;BME280;35951;47.848;-122.338;2022-10-04T04:47:26;101518.75;;;15.67;100.00
50065;BME280;35951;47.848;-122.338;2022-10-04T04:50:09;101520.06;;;15.67;100.00
50065;BME280;35951;47.848;-122.338;2022-10-04T04:52:39;101521.37;;;15.67;100.00
50065;BME280;35951;47.848;-122.338;2022-10-04T04:55:14;101515.27;;;15.66;100.00
50065;BME280;35951;47.848;-122.338;2022-10-04T04:57:44;101515.26;;;15.65;100.00
50065;BME280;35951;47.848;-122.338;2022-10-04T05:00:16;101515.69;;;15.63;100.00
50065;BME280;35951;47.848;-122.338;2022-10-04T05:02:51;101522.22;;;15.60;100.00
50065;BME280;35951;47.848;-122.338;2022-10-04T05:05:24;101518.27;;;15.57;100.00
50065;BME280;35951;47.848;-122.338;2022-10-04T05:10:50;101510.40;;;15.50;100.00
50065;BME280;35951;47.848;-122.338;2022-10-04T05:13:13;101512.12;;;15.45;100.00
50065;BME280;35951;47.848;-122.338;2022-10-04T05:15:42;101512.98;;;15.41;100.00
50065;BME280;35951;47.848;-122.338;2022-10-04T05:18:15;101510.80;;;15.39;100.00
50065;BME280;35951;47.848;-122.338;2022-10-04T05:20:46;101513.38;;;15.34;100.00
50065;BME280;35951;47.848;-122.338;2022-10-04T05:23:14;101512.48;;;15.31;100.00
50065;BME280;35951;47.848;-122.338;2022-10-04T05:25:41;101508.55;;;15.29;100.00
50065;BME280;35951;47.848;-122.338;2022-10-04T05:28:09;101509.84;;;15.28;100.00
50065;BME280;35951;47.848;-122.338;2022-10-04T05:33:19;101515.52;;;15.23;100.00
50065;BME280;35951;47.848;-122.338;2022-10-04T05:35:53;101517.65;;;15.19;100.00
50065;BME280;35951;47.848;-122.338;2022-10-04T05:38:32;101515.02;;;15.12;100.00
50065;BME280;35951;47.848;-122.338;2022-10-04T05:41:20;101512.37;;;15.09;100.00
50065;BME280;35951;47.848;-122.338;2022-10-04T05:43:48;101508.87;;;15.07;100.00
50065;BME280;35951;47.848;-122.338;2022-10-04T05:46:25;101511.48;;;15.07;100.00
50065;BME280;35951;47.848;-122.338;2022-10-04T05:49:00;101515.41;;;15.07;100.00
50065;BME280;35951;47.848;-122.338;2022-10-04T05:51:29;101513.21;;;15.04;100.00
50065;BME280;35951;47.848;-122.338;2022-10-04T05:54:00;101515.83;;;15.04;100.00
50065;BME280;35951;47.848;-122.338;2022-10-04T06:05:24;101514.02;;;14.92;100.00
50065;BME280;35951;47.848;-122.338;2022-10-04T06:15:55;101519.18;;;14.84;100.00
50065;BME280;35951;47.848;-122.338;2022-10-04T06:21:46;101520.50;;;14.83;100.00
50065;BME280;35951;47.848;-122.338;2022-10-04T06:24:24;101524.41;;;14.81;100.00
50065;BME280;35951;47.848;-122.338;2022-10-04T06:26:55;101525.25;;;14.78;100.00
50065;BME280;35951;47.848;-122.338;2022-10-04T06:29:34;101518.27;;;14.76;100.00
50065;BME280;35951;47.848;-122.338;2022-10-04T06:35:16;101519.52;;;14.71;100.00
50065;BME280;35951;47.848;-122.338;2022-10-04T06:46:19;101520.30;;;14.58;100.00
50065;BME280;35951;47.848;-122.338;2022-10-04T06:54:04;101511.06;;;14.50;100.00
50065;BME280;35951;47.848;-122.338;2022-10-04T06:56:45;101515.81;;;14.48;100.00
50065;BME280;35951;47.848;-122.338;2022-10-04T07:02:18;101517.12;;;14.45;100.00
50065;BME280;35951;47.848;-122.338;2022-10-04T07:04:56;101521.05;;;14.45;100.00
50065;BME280;35951;47.848;-122.338;2022-10-04T07:07:31;101513.18;;;14.43;100.00
50065;BME280;35951;47.848;-122.338;2022-10-04T07:13:09;101509.24;;;14.42;100.00
50065;BME280;35951;47.848;-122.338;2022-10-04T07:15:49;101510.57;;;14.43;100.00
50065;BME280;35951;47.848;-122.338;2022-10-04T07:18:22;101505.32;;;14.42;100.00
50065;BME280;35951;47.848;-122.338;2022-10-04T07:20:51;101509.24;;;14.42;100.00
50065;BME280;35951;47.848;-122.338;2022-10-04T07:23:22;101509.20;;;14.38;100.00
50065;BME280;35951;47.848;-122.338;2022-10-04T07:25:54;101514.41;;;14.37;100.00
50065;BME280;35951;47.848;-122.338;2022-10-04T07:28:24;101514.84;;;14.35;100.00
50065;BME280;35951;47.848;-122.338;2022-10-04T07:31:34;101520.48;;;14.33;100.00
50065;BME280;35951;47.848;-122.338;2022-10-04T07:33:51;101522.67;;;14.32;100.00
50065;BME280;35951;47.848;-122.338;2022-10-04T07:36:56;101520.05;;;14.33;100.00
50065;BME280;35951;47.848;-122.338;2022-10-04T07:39:14;101524.87;;;14.34;100.00
50065;BME280;35951;47.848;-122.338;2022-10-04T07:41:54;101523.96;;;14.30;100.00
50065;BME280;35951;47.848;-122.338;2022-10-04T07:44:36;101516.97;;;14.29;100.00
50065;BME280;35951;47.848;-122.338;2022-10-04T07:49:50;101516.94;;;14.25;100.00
50065;BME280;35951;47.848;-122.338;2022-10-04T07:55:16;101512.92;;;14.14;100.00
50065;BME280;35951;47.848;-122.338;2022-10-04T08:00:47;101511.11;;;14.07;100.00
50065;BME280;35951;47.848;-122.338;2022-10-04T08:06:44;101503.64;;;14.01;100.00
50065;BME280;35951;47.848;-122.338;2022-10-04T08:09:27;101504.05;;;13.98;100.00
50065;BME280;35951;47.848;-122.338;2022-10-04T08:18:17;101503.09;;;13.91;100.00
50065;BME280;35951;47.848;-122.338;2022-10-04T08:25:57;101497.37;;;13.82;100.00
50065;BME280;35951;47.848;-122.338;2022-10-04T08:39:31;101518.55;;;13.71;100.00
50065;BME280;35951;47.848;-122.338;2022-10-04T08:50:47;101527.63;;;13.65;100.00
50065;BME280;35951;47.848;-122.338;2022-10-04T09:15:51;101518.40;;;13.57;100.00
50065;BME280;35951;47.848;-122.338;2022-10-04T09:21:17;101517.87;;;13.50;100.00
50065;BME280;35951;47.848;-122.338;2022-10-04T09:26:45;101522.58;;;13.46;100.00
50065;BME280;35951;47.848;-122.338;2022-10-04T09:43:28;101520.63;;;13.64;100.00
50065;BME280;35951;47.848;-122.338;2022-10-04T09:46:05;101509.37;;;13.67;100.00
50065;BME280;35951;47.848;-122.338;2022-10-04T09:48:56;101509.38;;;13.70;100.00
50065;BME280;35951;47.848;-122.338;2022-10-04T09:56:55;101523.39;;;13.76;100.00
50065;BME280;35951;47.848;-122.338;2022-10-04T10:04:51;101514.34;;;13.82;100.00
50065;BME280;35951;47.848;-122.338;2022-10-04T10:07:39;101519.13;;;13.83;100.00
50065;BME280;35951;47.848;-122.338;2022-10-04T10:32:40;101534.48;;;13.94;100.00
50065;BME280;35951;47.848;-122.338;2022-10-04T10:44:16;101531.02;;;13.95;100.00
50065;BME280;35951;47.848;-122.338;2022-10-04T10:46:52;101528.81;;;13.92;100.00
50065;BME280;35951;47.848;-122.338;2022-10-04T10:49:25;101527.48;;;13.90;100.00
50065;BME280;35951;47.848;-122.338;2022-10-04T10:52:03;101533.11;;;13.90;100.00
50065;BME280;35951;47.848;-122.338;2022-10-04T10:54:43;101536.13;;;13.85;100.00
50065;BME280;35951;47.848;-122.338;2022-10-04T11:11:43;101549.61;;;13.86;100.00
50065;BME280;35951;47.848;-122.338;2022-10-04T11:14:27;101552.66;;;13.85;100.00
50065;BME280;35951;47.848;-122.338;2022-10-04T11:17:04;101550.89;;;13.81;100.00
50065;BME280;35951;47.848;-122.338;2022-10-04T11:19:48;101550.40;;;13.78;100.00
50065;BME280;35951;47.848;-122.338;2022-10-04T11:27:43;101557.77;;;13.74;100.00
50065;BME280;35951;47.848;-122.338;2022-10-04T11:36:17;101543.38;;;13.73;100.00
50065;BME280;35951;47.848;-122.338;2022-10-04T11:39:07;101542.44;;;13.68;100.00
50065;BME280;35951;47.848;-122.338;2022-10-04T11:41:55;101540.28;;;13.69;100.00
50065;BME280;35951;47.848;-122.338;2022-10-04T11:47:25;101543.79;;;13.71;100.00
50065;BME280;35951;47.848;-122.338;2022-10-04T11:50:12;101536.41;;;13.72;100.00
50065;BME280;35951;47.848;-122.338;2022-10-04T11:53:08;101543.38;;;13.73;100.00
50065;BME280;35951;47.848;-122.338;2022-10-04T12:01:05;101542.02;;;13.70;100.00
50065;BME280;35951;47.848;-122.338;2022-10-04T12:06:41;101552.88;;;13.68;100.00
50065;BME280;35951;47.848;-122.338;2022-10-04T12:09:12;101548.51;;;13.65;100.00
50065;BME280;35951;47.848;-122.338;2022-10-04T12:11:50;101547.19;;;13.63;100.00
50065;BME280;35951;47.848;-122.338;2022-10-04T12:14:55;101543.23;;;13.62;100.00
50065;BME280;35951;47.848;-122.338;2022-10-04T12:23:10;101538.76;;;13.50;100.00
50065;BME280;35951;47.848;-122.338;2022-10-04T12:31:53;101548.33;;;13.51;100.00
50065;BME280;35951;47.848;-122.338;2022-10-04T12:33:55;101545.73;;;13.53;100.00
50065;BME280;35951;47.848;-122.338;2022-10-04T12:39:49;101557.48;;;13.53;100.00
50065;BME280;35951;47.848;-122.338;2022-10-04T12:44:42;101567.09;;;13.54;100.00
50065;BME280;35951;47.848;-122.338;2022-10-04T12:56:04;101581.01;;;13.54;100.00
50065;BME280;35951;47.848;-122.338;2022-10-04T13:01:16;101591.89;;;13.54;100.00
50065;BME280;35951;47.848;-122.338;2022-10-04T13:18:08;101583.67;;;13.57;100.00
50065;BME280;35951;47.848;-122.338;2022-10-04T13:23:29;101587.52;;;13.53;100.00
50065;BME280;35951;47.848;-122.338;2022-10-04T13:29:10;101590.09;;;13.51;100.00
50065;BME280;35951;47.848;-122.338;2022-10-04T13:40:24;101591.45;;;13.54;100.00
50065;BME280;35951;47.848;-122.338;2022-10-04T13:45:50;101599.84;;;13.63;100.00
50065;BME280;35951;47.848;-122.338;2022-10-04T13:54:10;101602.52;;;13.69;100.00
50065;BME280;35951;47.848;-122.338;2022-10-04T13:59:48;101597.67;;;13.62;100.00
50065;BME280;35951;47.848;-122.338;2022-10-04T14:13:47;101609.97;;;13.73;100.00
50065;BME280;35951;47.848;-122.338;2022-10-04T14:25:10;101608.71;;;13.76;100.00
50065;BME280;35951;47.848;-122.338;2022-10-04T14:36:00;101627.57;;;13.86;100.00
50065;BME280;35951;47.848;-122.338;2022-10-04T14:41:09;101636.25;;;13.85;100.00
50065;BME280;35951;47.848;-122.338;2022-10-04T14:43:46;101639.76;;;13.87;100.00
50065;BME280;35951;47.848;-122.338;2022-10-04T14:58:03;101645.51;;;13.94;100.00
50065;BME280;35951;47.848;-122.338;2022-10-04T15:01:00;101643.77;;;13.95;100.00
50065;BME280;35951;47.848;-122.338;2022-10-04T15:03:47;101654.23;;;13.96;100.00
50065;BME280;35951;47.848;-122.338;2022-10-04T15:08:59;101644.64;;;13.94;100.00
50065;BME280;35951;47.848;-122.338;2022-10-04T15:11:39;101648.09;;;13.93;100.00
50065;BME280;35951;47.848;-122.338;2022-10-04T15:14:26;101640.67;;;13.91;100.00
50065;BME280;35951;47.848;-122.338;2022-10-04T15:16:57;101646.28;;;13.87;100.00
50065;BME280;35951;47.848;-122.338;2022-10-04T15:19:29;101641.50;;;13.87;100.00
50065;BME280;35951;47.848;-122.338;2022-10-04T15:33:04;101649.19;;;13.76;100.00
50065;BME280;35951;47.848;-122.338;2022-10-04T15:35:29;101647.40;;;13.73;100.00
50065;BME280;35951;47.848;-122.338;2022-10-04T15:37:58;101648.71;;;13.72;100.00
50065;BME280;35951;47.848;-122.338;2022-10-04T15:41:00;101645.20;;;13.71;100.00
50065;BME280;35951;47.848;-122.338;2022-10-04T15:43:42;101648.22;;;13.69;100.00
50065;BME280;35951;47.848;-122.338;2022-10-04T15:46:45;101650.80;;;13.68;100.00
50065;BME280;35951;47.848;-122.338;2022-10-04T15:52:06;101649.02;;;13.63;100.00
50065;BME280;35951;47.848;-122.338;2022-10-04T16:00:12;101648.17;;;13.65;100.00
50065;BME280;35951;47.848;-122.338;2022-10-04T16:17:09;101661.84;;;13.78;100.00
50065;BME280;35951;47.848;-122.338;2022-10-04T16:19:55;101664.91;;;13.79;100.00
50065;BME280;35951;47.848;-122.338;2022-10-04T16:24:58;101666.17;;;13.76;100.00
50065;BME280;35951;47.848;-122.338;2022-10-04T16:27:48;101668.29;;;13.73;100.00
50065;BME280;35951;47.848;-122.338;2022-10-04T16:30:35;101662.64;;;13.72;100.00
50065;BME280;35951;47.848;-122.338;2022-10-04T16:33:25;101659.15;;;13.73;100.00
50065;BME280;35951;47.848;-122.338;2022-10-04T16:38:46;101650.86;;;13.71;100.00
50065;BME280;35951;47.848;-122.338;2022-10-04T16:49:53;101654.84;;;13.77;100.00
50065;BME280;35951;47.848;-122.338;2022-10-04T16:52:26;101654.05;;;13.81;100.00
50065;BME280;35951;47.848;-122.338;2022-10-04T17:06:51;101664.23;;;13.94;100.00
50065;BME280;35951;47.848;-122.338;2022-10-04T17:09:28;101665.11;;;13.94;100.00
50065;BME280;35951;47.848;-122.338;2022-10-04T17:12:04;101658.19;;;13.98;100.00
50065;BME280;35951;47.848;-122.338;2022-10-04T17:19:58;101655.91;;;13.91;100.00
50065;BME280;35951;47.848;-122.338;2022-10-04T17:25:22;101656.41;;;13.97;100.00
50065;BME280;35951;47.848;-122.338;2022-10-04T17:27:56;101659.53;;;14.01;100.00
50065;BME280;35951;47.848;-122.338;2022-10-04T17:30:43;101660.48;;;14.06;100.00
50065;BME280;35951;47.848;-122.338;2022-10-04T17:36:02;101660.97;;;14.13;100.00
50065;BME280;35951;47.848;-122.338;2022-10-04T17:38:43;101659.73;;;14.18;100.00
50065;BME280;35951;47.848;-122.338;2022-10-04T17:44:21;101655.24;;;14.08;100.00
50065;BME280;35951;47.848;-122.338;2022-10-04T17:46:57;101656.95;;;14.03;100.00
50065;BME280;35951;47.848;-122.338;2022-10-04T17:49:21;101650.37;;;13.99;100.00
50065;BME280;35951;47.848;-122.338;2022-10-04T17:52:14;101653.00;;;14.01;100.00
50065;BME280;35951;47.848;-122.338;2022-10-04T17:55:10;101653.90;;;14.03;100.00
50065;BME280;35951;47.848;-122.338;2022-10-04T18:00:18;101660.59;;;14.15;100.00
50065;BME280;35951;47.848;-122.338;2022-10-04T18:08:19;101663.72;;;14.24;100.00
50065;BME280;35951;47.848;-122.338;2022-10-04T18:16:14;101655.70;;;14.09;100.00
50065;BME280;35951;47.848;-122.338;2022-10-04T18:18:49;101664.40;;;14.06;100.00
50065;BME280;35951;47.848;-122.338;2022-10-04T18:21:23;101659.58;;;14.06;100.00
50065;BME280;35951;47.848;-122.338;2022-10-04T18:24:01;101650.41;;;14.04;100.00
50065;BME280;35951;47.848;-122.338;2022-10-04T18:26:58;101649.98;;;14.03;100.00
50065;BME280;35951;47.848;-122.338;2022-10-04T18:29:37;101638.64;;;14.01;100.00
50065;BME280;35951;47.848;-122.338;2022-10-04T18:32:15;101649.95;;;14.01;100.00
50065;BME280;35951;47.848;-122.338;2022-10-04T18:35:36;101653.44;;;14.02;100.00
50065;BME280;35951;47.848;-122.338;2022-10-04T18:37:43;101639.97;;;14.03;100.00
50065;BME280;35951;47.848;-122.338;2022-10-04T18:40:18;101639.50;;;14.01;100.00
50065;BME280;35951;47.848;-122.338;2022-10-04T18:42:54;101635.59;;;14.01;100.00
50065;BME280;35951;47.848;-122.338;2022-10-04T18:45:27;101629.51;;;14.04;100.00
50065;BME280;35951;47.848;-122.338;2022-10-04T18:47:56;101629.58;;;14.09;100.00
50065;BME280;35951;47.848;-122.338;2022-10-04T18:50:35;101635.73;;;14.14;100.00
50065;BME280;35951;47.848;-122.338;2022-10-04T18:53:14;101632.31;;;14.19;100.00
50065;BME280;35951;47.848;-122.338;2022-10-04T19:01:42;101637.58;;;14.24;100.00
50065;BME280;35951;47.848;-122.338;2022-10-04T19:09:51;101633.16;;;14.18;100.00
50065;BME280;35951;47.848;-122.338;2022-10-04T19:12:33;101625.28;;;14.14;100.00
50065;BME280;35951;47.848;-122.338;2022-10-04T19:15:28;101627.41;;;14.11;100.00
50065;BME280;35951;47.848;-122.338;2022-10-04T19:18:02;101617.38;;;14.09;100.00
50065;BME280;35951;47.848;-122.338;2022-10-04T19:20:39;101624.88;;;14.16;100.00
50065;BME280;35951;47.848;-122.338;2022-10-04T19:26:45;101630.23;;;14.28;100.00
50065;BME280;35951;47.848;-122.338;2022-10-04T19:28:27;101633.77;;;14.32;100.00
50065;BME280;35951;47.848;-122.338;2022-10-04T19:31:03;101633.78;;;14.35;100.00
50065;BME280;35951;47.848;-122.338;2022-10-04T19:39:41;101627.33;;;14.41;100.00
50065;BME280;35951;47.848;-122.338;2022-10-04T19:42:16;101619.00;;;14.38;100.00
50065;BME280;35951;47.848;-122.338;2022-10-04T19:45:03;101610.71;;;14.36;100.00
50065;BME280;35951;47.848;-122.338;2022-10-04T19:47:52;101607.23;;;14.35;100.00
50065;BME280;35951;47.848;-122.338;2022-10-04T19:53:19;101610.73;;;14.40;100.00
50065;BME280;35951;47.848;-122.338;2022-10-04T20:00:51;101595.49;;;14.40;100.00
50065;BME280;35951;47.848;-122.338;2022-10-04T20:03:18;101597.69;;;14.42;100.00
50065;BME280;35951;47.848;-122.338;2022-10-04T20:05:47;101594.25;;;14.45;100.00
50065;BME280;35951;47.848;-122.338;2022-10-04T20:08:16;101603.87;;;14.49;100.00
50065;BME280;35951;47.848;-122.338;2022-10-04T20:19:18;101592.66;;;14.57;100.00
50065;BME280;35951;47.848;-122.338;2022-10-04T20:29:56;101570.77;;;14.51;100.00
50065;BME280;35951;47.848;-122.338;2022-10-04T20:34:57;101574.73;;;14.57;100.00
50065;BME280;35951;47.848;-122.338;2022-10-04T20:45:44;101566.58;;;14.67;100.00
50065;BME280;35951;47.848;-122.338;2022-10-04T20:48:20;101569.23;;;14.70;100.00
50065;BME280;35951;47.848;-122.338;2022-10-04T20:50:45;101563.98;;;14.71;100.00
50065;BME280;35951;47.848;-122.338;2022-10-04T20:58:50;101557.92;;;14.74;100.00
50065;BME280;35951;47.848;-122.338;2022-10-04T21:01:28;101560.98;;;14.76;100.00
50065;BME280;35951;47.848;-122.338;2022-10-04T21:07:04;101571.08;;;14.83;100.00
50065;BME280;35951;47.848;-122.338;2022-10-04T21:09:30;101572.83;;;14.86;100.00
50065;BME280;35951;47.848;-122.338;2022-10-04T21:11:59;101568.02;;;14.84;100.00
50065;BME280;35951;47.848;-122.338;2022-10-04T21:14:30;101558.83;;;14.77;100.00
50065;BME280;35951;47.848;-122.338;2022-10-04T21:16:56;101557.50;;;14.76;100.00
50065;BME280;35951;47.848;-122.338;2022-10-04T21:19:42;101554.46;;;14.78;100.00
50065;BME280;35951;47.848;-122.338;2022-10-04T21:22:29;101548.79;;;14.78;100.00